sensor_id;sensor_type;location;lat;lon;timestamp;temperature;humidity
40538;DHT22;27925;41.874;12.526;2023-05-10T00:02:25;20.90;72.40
40538;DHT22;27925;41.874;12.526;2023-05-10T00:04:52;20.80;72.40
40538;DHT22;27925;41.874;12.526;2023-05-10T00:07:18;20.80;72.60
40538;DHT22;27925;41.874;12.526;2023-05-10T00:09:43;20.80;72.50
40538;DHT22;27925;41.874;12.526;2023-05-10T00:12:09;20.80;72.70
40538;DHT22;27925;41.874;12.526;2023-05-10T00:14:35;20.80;72.80
40538;DHT22;27925;41.874;12.526;2023-05-10T00:17:00;20.80;73.00
40538;DHT22;27925;41.874;12.526;2023-05-10T00:19:26;20.80;73.10
40538;DHT22;27925;41.874;12.526;2023-05-10T00:21:52;20.80;73.20
40538;DHT22;27925;41.874;12.526;2023-05-10T00:24:17;20.80;73.00
40538;DHT22;27925;41.874;12.526;2023-05-10T00:26:43;20.80;72.70
40538;DHT22;27925;41.874;12.526;2023-05-10T00:29:09;20.80;72.60
40538;DHT22;27925;41.874;12.526;2023-05-10T00:31:34;20.80;72.80
40538;DHT22;27925;41.874;12.526;2023-05-10T00:34:00;20.70;72.90
40538;DHT22;27925;41.874;12.526;2023-05-10T00:36:26;20.70;72.90
40538;DHT22;27925;41.874;12.526;2023-05-10T00:38:52;20.70;73.00
40538;DHT22;27925;41.874;12.526;2023-05-10T00:41:18;20.70;72.70
40538;DHT22;27925;41.874;12.526;2023-05-10T00:43:44;20.70;72.70
40538;DHT22;27925;41.874;12.526;2023-05-10T00:46:09;20.70;72.70
40538;DHT22;27925;41.874;12.526;2023-05-10T00:48:35;20.70;72.60
40538;DHT22;27925;41.874;12.526;2023-05-10T00:51:02;20.70;72.70
40538;DHT22;27925;41.874;12.526;2023-05-10T00:53:29;20.60;72.60
40538;DHT22;27925;41.874;12.526;2023-05-10T00:55:56;20.60;72.60
40538;DHT22;27925;41.874;12.526;2023-05-10T00:58:22;20.60;72.40
40538;DHT22;27925;41.874;12.526;2023-05-10T01:00:49;20.60;72.20
40538;DHT22;27925;41.874;12.526;2023-05-10T01:03:16;20.60;71.90
40538;DHT22;27925;41.874;12.526;2023-05-10T01:05:42;20.60;71.50
40538;DHT22;27925;41.874;12.526;2023-05-10T01:08:08;20.60;71.60
40538;DHT22;27925;41.874;12.526;2023-05-10T01:10:34;20.60;71.50
40538;DHT22;27925;41.874;12.526;2023-05-10T01:13:00;20.60;71.30
40538;DHT22;27925;41.874;12.526;2023-05-10T01:15:26;20.60;71.30
40538;DHT22;27925;41.874;12.526;2023-05-10T01:17:52;20.60;71.40
40538;DHT22;27925;41.874;12.526;2023-05-10T01:20:19;20.60;71.50
40538;DHT22;27925;41.874;12.526;2023-05-10T01:23:07;20.60;71.40
40538;DHT22;27925;41.874;12.526;2023-05-10T01:33:59;20.50;72.20
40538;DHT22;27925;41.874;12.526;2023-05-10T01:36:35;20.50;71.50
40538;DHT22;27925;41.874;12.526;2023-05-10T01:47:23;20.50;72.70
40538;DHT22;27925;41.874;12.526;2023-05-10T01:49:55;20.50;71.70
40538;DHT22;27925;41.874;12.526;2023-05-10T01:52:33;20.50;71.90
40538;DHT22;27925;41.874;12.526;2023-05-10T01:55:05;20.50;72.00
40538;DHT22;27925;41.874;12.526;2023-05-10T01:57:36;20.50;72.30
40538;DHT22;27925;41.874;12.526;2023-05-10T02:00:03;20.50;72.10
40538;DHT22;27925;41.874;12.526;2023-05-10T02:02:34;20.50;72.50
40538;DHT22;27925;41.874;12.526;2023-05-10T02:05:03;20.50;72.30
40538;DHT22;27925;41.874;12.526;2023-05-10T02:07:32;20.50;72.20
40538;DHT22;27925;41.874;12.526;2023-05-10T02:09:58;20.50;72.10
40538;DHT22;27925;41.874;12.526;2023-05-10T02:12:25;20.40;72.30
40538;DHT22;27925;41.874;12.526;2023-05-10T02:14:51;20.40;72.60
40538;DHT22;27925;41.874;12.526;2023-05-10T02:17:18;20.40;72.50
40538;DHT22;27925;41.874;12.526;2023-05-10T02:19:44;20.40;72.40
40538;DHT22;27925;41.874;12.526;2023-05-10T02:22:11;20.40;72.50
40538;DHT22;27925;41.874;12.526;2023-05-10T02:24:38;20.40;72.90
40538;DHT22;27925;41.874;12.526;2023-05-10T02:27:06;20.30;72.60
40538;DHT22;27925;41.874;12.526;2023-05-10T02:29:32;20.30;72.80
40538;DHT22;27925;41.874;12.526;2023-05-10T02:31:59;20.30;72.70
40538;DHT22;27925;41.874;12.526;2023-05-10T02:34:26;20.30;73.20
40538;DHT22;27925;41.874;12.526;2023-05-10T02:36:53;20.30;73.10
40538;DHT22;27925;41.874;12.526;2023-05-10T02:39:20;20.30;73.30
40538;DHT22;27925;41.874;12.526;2023-05-10T02:41:47;20.30;73.20
40538;DHT22;27925;41.874;12.526;2023-05-10T02:44:15;20.30;73.70
40538;DHT22;27925;41.874;12.526;2023-05-10T02:46:42;20.30;73.60
40538;DHT22;27925;41.874;12.526;2023-05-10T02:49:08;20.30;73.70
40538;DHT22;27925;41.874;12.526;2023-05-10T02:51:37;20.30;73.90
40538;DHT22;27925;41.874;12.526;2023-05-10T02:54:15;20.30;73.90
40538;DHT22;27925;41.874;12.526;2023-05-10T02:56:47;20.30;74.00
40538;DHT22;27925;41.874;12.526;2023-05-10T02:59:15;20.30;74.00
40538;DHT22;27925;41.874;12.526;2023-05-10T03:01:41;20.30;74.10
40538;DHT22;27925;41.874;12.526;2023-05-10T03:04:07;20.30;73.90
40538;DHT22;27925;41.874;12.526;2023-05-10T03:06:33;20.30;74.10
40538;DHT22;27925;41.874;12.526;2023-05-10T03:08:59;20.30;74.00
40538;DHT22;27925;41.874;12.526;2023-05-10T03:14:42;20.30;74.70
40538;DHT22;27925;41.874;12.526;2023-05-10T03:17:35;20.30;74.50
40538;DHT22;27925;41.874;12.526;2023-05-10T03:20:02;20.30;73.80
40538;DHT22;27925;41.874;12.526;2023-05-10T03:22:34;20.30;73.60
40538;DHT22;27925;41.874;12.526;2023-05-10T03:25:05;20.30;73.50
40538;DHT22;27925;41.874;12.526;2023-05-10T03:27:31;20.30;73.50
40538;DHT22;27925;41.874;12.526;2023-05-10T03:29:58;20.40;73.50
40538;DHT22;27925;41.874;12.526;2023-05-10T03:32:24;20.30;73.80
40538;DHT22;27925;41.874;12.526;2023-05-10T03:34:50;20.30;73.90
40538;DHT22;27925;41.874;12.526;2023-05-10T03:37:15;20.30;74.30
40538;DHT22;27925;41.874;12.526;2023-05-10T03:39:41;20.30;74.50
40538;DHT22;27925;41.874;12.526;2023-05-10T03:42:07;20.30;74.80
40538;DHT22;27925;41.874;12.526;2023-05-10T03:44:33;20.30;75.20
40538;DHT22;27925;41.874;12.526;2023-05-10T03:46:59;20.20;75.20
40538;DHT22;27925;41.874;12.526;2023-05-10T03:49:24;20.10;75.80
40538;DHT22;27925;41.874;12.526;2023-05-10T03:51:50;20.10;76.00
40538;DHT22;27925;41.874;12.526;2023-05-10T03:54:16;20.10;75.90
40538;DHT22;27925;41.874;12.526;2023-05-10T03:56:41;20.10;75.40
40538;DHT22;27925;41.874;12.526;2023-05-10T03:59:07;20.10;75.00
40538;DHT22;27925;41.874;12.526;2023-05-10T04:01:34;20.20;74.90
40538;DHT22;27925;41.874;12.526;2023-05-10T04:04:00;20.20;74.70
40538;DHT22;27925;41.874;12.526;2023-05-10T04:06:26;20.20;74.80
40538;DHT22;27925;41.874;12.526;2023-05-10T04:08:51;20.20;74.70
40538;DHT22;27925;41.874;12.526;2023-05-10T04:11:17;20.20;74.80
40538;DHT22;27925;41.874;12.526;2023-05-10T04:13:43;20.20;75.00
40538;DHT22;27925;41.874;12.526;2023-05-10T04:16:09;20.20;75.20
40538;DHT22;27925;41.874;12.526;2023-05-10T04:18:34;20.20;75.20
40538;DHT22;27925;41.874;12.526;2023-05-10T04:21:00;20.20;75.30
40538;DHT22;27925;41.874;12.526;2023-05-10T04:23:27;20.20;75.50
40538;DHT22;27925;41.874;12.526;2023-05-10T04:25:58;20.20;75.30
40538;DHT22;27925;41.874;12.526;2023-05-10T04:28:24;20.10;75.30
40538;DHT22;27925;41.874;12.526;2023-05-10T04:30:49;20.10;75.90
40538;DHT22;27925;41.874;12.526;2023-05-10T04:33:15;20.10;75.80
40538;DHT22;27925;41.874;12.526;2023-05-10T04:35:41;20.20;76.00
40538;DHT22;27925;41.874;12.526;2023-05-10T04:38:06;20.20;76.10
40538;DHT22;27925;41.874;12.526;2023-05-10T04:40:32;20.20;76.20
40538;DHT22;27925;41.874;12.526;2023-05-10T04:42:58;20.20;76.20
40538;DHT22;27925;41.874;12.526;2023-05-10T04:45:23;20.20;76.30
40538;DHT22;27925;41.874;12.526;2023-05-10T04:47:49;20.20;76.20
40538;DHT22;27925;41.874;12.526;2023-05-10T04:50:15;20.20;76.50
40538;DHT22;27925;41.874;12.526;2023-05-10T04:52:40;20.20;76.50
40538;DHT22;27925;41.874;12.526;2023-05-10T04:55:06;20.20;76.50
40538;DHT22;27925;41.874;12.526;2023-05-10T04:57:34;20.20;76.40
40538;DHT22;27925;41.874;12.526;2023-05-10T05:00:00;20.20;76.00
40538;DHT22;27925;41.874;12.526;2023-05-10T23:03:19;18.50;85.40
40538;DHT22;27925;41.874;12.526;2023-05-10T23:05:46;18.50;85.30
40538;DHT22;27925;41.874;12.526;2023-05-10T23:08:11;18.50;85.30
40538;DHT22;27925;41.874;12.526;2023-05-10T23:10:37;18.50;85.40
40538;DHT22;27925;41.874;12.526;2023-05-10T23:13:03;18.60;85.30
40538;DHT22;27925;41.874;12.526;2023-05-10T23:15:29;18.60;85.40
40538;DHT22;27925;41.874;12.526;2023-05-10T23:17:57;18.60;85.50
40538;DHT22;27925;41.874;12.526;2023-05-10T23:20:26;18.60;85.40
40538;DHT22;27925;41.874;12.526;2023-05-10T23:22:52;18.60;85.60
40538;DHT22;27925;41.874;12.526;2023-05-10T23:25:18;18.60;85.60
40538;DHT22;27925;41.874;12.526;2023-05-10T23:27:43;18.60;85.30
40538;DHT22;27925;41.874;12.526;2023-05-10T23:30:09;18.60;85.30
40538;DHT22;27925;41.874;12.526;2023-05-10T23:32:35;18.60;85.60
40538;DHT22;27925;41.874;12.526;2023-05-10T23:35:01;18.60;85.40
40538;DHT22;27925;41.874;12.526;2023-05-10T23:37:27;18.60;85.40
40538;DHT22;27925;41.874;12.526;2023-05-10T23:39:53;18.60;85.40
40538;DHT22;27925;41.874;12.526;2023-05-10T23:42:18;18.60;85.60
40538;DHT22;27925;41.874;12.526;2023-05-10T23:44:44;18.60;85.60
40538;DHT22;27925;41.874;12.526;2023-05-10T23:47:11;18.60;85.50
40538;DHT22;27925;41.874;12.526;2023-05-10T23:49:36;18.60;85.80
40538;DHT22;27925;41.874;12.526;2023-05-10T23:52:02;18.50;85.90
40538;DHT22;27925;41.874;12.526;2023-05-10T23:54:28;18.50;86.10
40538;DHT22;27925;41.874;12.526;2023-05-10T23:56:54;18.50;86.30
40538;DHT22;27925;41.874;12.526;2023-05-10T23:59:19;18.40;86.50
